Time;durP1;ratioP1;P1;durP2;ratioP2;P2;SDS_P1;SDS_P2;PMS_P1;PMS_P2;Temp;Humidity;BMP_temperature;BMP_pressure;BME280_temperature;BME280_humidity;BME280_pressure;Samples;Min_cycle;Max_cycle;Signal;HPM_P1;HPM_P2
2023/05/01 00:01:20;;;;;;;2.75;1.67;;;17.70;80.00;;;;;;4995456;28;20031;-70
2023/05/01 00:03:45;;;;;;;3.50;1.80;;;17.70;80.20;;;;;;4995309;28;20026;-71
2023/05/01 00:06:11;;;;;;;3.13;1.90;;;17.70;80.10;;;;;;4996009;28;20411;-73
2023/05/01 00:08:36;;;;;;;2.67;1.75;;;17.70;80.20;;;;;;4995136;28;20031;-70
2023/05/01 00:11:03;;;;;;;4.07;2.10;;;17.70;80.10;;;;;;4994887;28;20033;-68
2023/05/01 00:13:30;;;;;;;2.33;1.50;;;17.70;80.10;;;;;;4995267;28;20468;-70
2023/05/01 00:15:56;;;;;;;2.58;1.70;;;17.70;80.20;;;;;;4995604;28;20061;-72
2023/05/01 00:18:21;;;;;;;3.10;1.98;;;17.70;80.20;;;;;;4995060;28;20023;-71
2023/05/01 00:20:47;;;;;;;4.10;1.92;;;17.70;80.30;;;;;;4995260;28;20030;-70
2023/05/01 00:23:13;;;;;;;3.28;1.77;;;17.60;80.40;;;;;;4995035;28;20109;-72
2023/05/01 00:25:39;;;;;;;3.38;1.83;;;17.50;80.60;;;;;;4995116;28;20105;-72
2023/05/01 00:28:05;;;;;;;3.33;2.00;;;17.60;80.90;;;;;;4995361;28;20126;-71
2023/05/01 00:30:34;;;;;;;4.57;1.90;;;17.50;81.00;;;;;;4994837;28;20050;-72
2023/05/01 00:33:00;;;;;;;2.80;1.70;;;17.50;81.30;;;;;;4994823;28;20057;-70
2023/05/01 00:35:26;;;;;;;3.85;1.60;;;17.50;82.20;;;;;;4995111;28;20105;-69
2023/05/01 00:37:52;;;;;;;2.30;1.65;;;17.50;82.30;;;;;;4994859;28;20121;-72
2023/05/01 00:40:17;;;;;;;2.65;1.48;;;17.50;82.10;;;;;;4995206;28;20092;-71
2023/05/01 00:42:43;;;;;;;3.88;2.13;;;17.50;81.70;;;;;;4995032;28;20030;-71
2023/05/01 00:45:09;;;;;;;2.25;1.58;;;17.50;81.50;;;;;;4994833;28;20053;-68
2023/05/01 00:47:35;;;;;;;3.50;1.73;;;17.50;81.10;;;;;;4994496;28;20018;-70
2023/05/01 00:50:02;;;;;;;3.40;1.50;;;17.50;81.20;;;;;;4994507;28;20106;-68
2023/05/01 00:52:28;;;;;;;4.63;2.03;;;17.50;81.60;;;;;;4994550;28;20092;-68
2023/05/01 00:54:54;;;;;;;4.68;2.38;;;17.50;81.70;;;;;;4994698;28;20610;-69
2023/05/01 00:57:20;;;;;;;4.88;2.58;;;17.40;81.90;;;;;;4994676;28;20053;-68
2023/05/01 00:59:47;;;;;;;3.40;2.08;;;17.50;82.00;;;;;;4994726;28;20368;-69
2023/05/01 01:02:13;;;;;;;2.65;2.03;;;17.40;82.30;;;;;;4994267;28;20030;-72
2023/05/01 01:04:44;;;;;;;3.42;1.83;;;17.40;82.70;;;;;;4994691;28;20040;-71
2023/05/01 01:07:46;;;;;;;5.00;2.25;;;17.40;82.60;;;;;;4994457;28;20027;-70
2023/05/01 01:10:30;;;;;;;2.65;1.83;;;17.40;82.10;;;;;;4994219;28;20061;-74
2023/05/01 01:12:55;;;;;;;3.17;2.10;;;17.40;82.50;;;;;;4994229;28;20034;-70
2023/05/01 01:15:29;;;;;;;2.75;1.83;;;17.40;83.30;;;;;;4992913;28;20030;-70
2023/05/01 01:18:04;;;;;;;3.80;2.20;;;17.40;83.40;;;;;;4994044;28;20391;-69
2023/05/01 01:20:32;;;;;;;3.70;2.05;;;17.40;83.00;;;;;;4994065;28;20156;-73
2023/05/01 01:23:32;;;;;;;3.95;1.95;;;17.30;83.30;;;;;;4993940;28;20034;-72
2023/05/01 01:26:28;;;;;;;3.10;2.33;;;17.30;83.90;;;;;;4994067;28;20524;-68
2023/05/01 01:29:28;;;;;;;4.57;1.98;;;17.30;83.10;;;;;;4994082;28;20033;-68
2023/05/01 01:32:02;;;;;;;3.45;1.98;;;17.30;83.10;;;;;;4993622;28;20084;-71
2023/05/01 01:34:39;;;;;;;5.25;2.22;;;17.30;83.10;;;;;;4993817;28;20590;-69
2023/05/01 01:37:14;;;;;;;5.15;2.00;;;17.30;82.80;;;;;;4993861;28;20049;-70
2023/05/01 01:39:49;;;;;;;4.20;2.17;;;17.30;82.70;;;;;;4993760;28;20149;-71
2023/05/01 01:42:21;;;;;;;2.55;1.90;;;17.30;82.40;;;;;;4993869;28;20026;-71
2023/05/01 01:45:01;;;;;;;6.45;2.35;;;17.30;82.20;;;;;;4993792;28;20022;-71
2023/05/01 01:47:31;;;;;;;6.13;2.30;;;17.30;82.00;;;;;;4993682;28;20362;-70
2023/05/01 01:50:01;;;;;;;5.90;2.30;;;17.30;82.00;;;;;;4993536;28;20034;-71
2023/05/01 01:52:29;;;;;;;4.97;2.58;;;17.30;82.20;;;;;;4993722;28;20383;-72
2023/05/01 01:55:05;;;;;;;4.40;2.33;;;17.30;82.10;;;;;;4993577;28;20023;-73
2023/05/01 01:57:32;;;;;;;5.97;2.40;;;17.30;82.80;;;;;;4993688;28;20088;-68
2023/05/01 01:59:58;;;;;;;3.08;2.20;;;17.30;82.10;;;;;;4993378;28;20433;-71
2023/05/01 02:02:25;;;;;;;6.03;2.20;;;17.30;82.30;;;;;;4993337;28;20030;-71
2023/05/01 02:04:52;;;;;;;4.75;2.50;;;17.30;82.30;;;;;;4993725;28;20474;-71
2023/05/01 02:07:19;;;;;;;3.47;2.13;;;17.30;82.40;;;;;;4993478;28;20029;-72
2023/05/01 02:09:47;;;;;;;3.33;2.00;;;17.30;82.40;;;;;;4993534;28;20014;-70
2023/05/01 02:12:15;;;;;;;2.72;2.28;;;17.20;83.30;;;;;;4993586;28;20122;-73
2023/05/01 02:14:41;;;;;;;4.65;2.30;;;17.20;82.70;;;;;;4993224;28;20499;-73
2023/05/01 02:17:08;;;;;;;3.05;2.00;;;17.20;82.70;;;;;;4992334;28;20384;-72
2023/05/01 02:19:39;;;;;;;3.63;2.28;;;17.20;82.70;;;;;;4993541;28;20018;-69
2023/05/01 02:22:06;;;;;;;4.40;2.47;;;17.20;82.60;;;;;;4993336;28;20030;-70
2023/05/01 02:24:33;;;;;;;4.25;2.05;;;17.20;82.60;;;;;;4993392;28;20022;-71
2023/05/01 02:27:13;;;;;;;3.50;2.13;;;17.20;82.60;;;;;;4993297;28;20018;-72
2023/05/01 02:29:39;;;;;;;2.60;1.98;;;17.20;82.60;;;;;;4993196;28;20049;-72
2023/05/01 02:32:04;;;;;;;4.95;2.20;;;17.20;83.10;;;;;;4993240;28;20034;-72
2023/05/01 02:34:34;;;;;;;6.85;2.40;;;17.10;83.00;;;;;;4995742;28;20026;-68
2023/05/01 02:36:59;;;;;;;6.50;2.25;;;17.10;83.40;;;;;;4997072;28;20042;-70
2023/05/01 02:39:25;;;;;;;6.05;2.55;;;17.10;83.60;;;;;;4996888;28;20423;-71
2023/05/01 02:41:54;;;;;;;4.75;2.70;;;17.00;83.60;;;;;;4997032;28;20034;-70
2023/05/01 02:44:19;;;;;;;3.67;2.20;;;17.10;83.50;;;;;;4996274;28;20015;-69
2023/05/01 02:46:48;;;;;;;4.55;2.00;;;17.10;83.30;;;;;;4996793;28;20030;-70
2023/05/01 02:49:16;;;;;;;6.50;2.28;;;17.00;83.50;;;;;;4994987;28;20479;-71
2023/05/01 02:51:42;;;;;;;5.03;2.42;;;17.00;83.20;;;;;;4996764;28;20387;-69
2023/05/01 02:54:08;;;;;;;5.47;2.70;;;17.00;83.30;;;;;;4996827;28;20380;-69
2023/05/01 02:56:34;;;;;;;5.00;2.70;;;17.00;83.40;;;;;;4996893;28;20113;-71
2023/05/01 02:59:00;;;;;;;5.03;2.60;;;16.90;83.50;;;;;;4996521;28;20037;-68
2023/05/01 03:01:26;;;;;;;3.30;2.20;;;16.90;83.70;;;;;;4996687;28;20022;-72
2023/05/01 03:03:52;;;;;;;6.38;2.55;;;16.90;83.60;;;;;;4996529;28;20114;-71
2023/05/01 03:06:18;;;;;;;4.15;2.47;;;16.90;83.90;;;;;;4997135;28;20132;-70
2023/05/01 03:08:44;;;;;;;4.82;2.75;;;17.00;83.70;;;;;;4996387;28;20454;-71
2023/05/01 03:11:09;;;;;;;5.82;2.95;;;16.90;83.50;;;;;;4996635;28;20503;-70
2023/05/01 03:13:35;;;;;;;4.15;2.40;;;17.00;83.70;;;;;;4993704;28;20472;-69
2023/05/01 03:16:03;;;;;;;4.45;3.15;;;16.90;83.80;;;;;;4996401;28;20479;-69
2023/05/01 03:18:28;;;;;;;9.00;2.70;;;16.90;84.10;;;;;;4995817;28;20073;-69
2023/05/01 03:20:55;;;;;;;4.90;2.78;;;16.90;84.00;;;;;;4996428;28;20431;-72
2023/05/01 03:23:22;;;;;;;7.28;2.80;;;16.90;84.10;;;;;;4996255;28;20018;-69
2023/05/01 03:25:48;;;;;;;4.80;2.90;;;16.80;84.20;;;;;;4996274;28;20034;-70
2023/05/01 03:28:15;;;;;;;3.05;2.42;;;16.80;84.30;;;;;;4996007;28;20077;-69
2023/05/01 03:30:41;;;;;;;5.65;3.17;;;16.90;84.30;;;;;;4996117;28;20037;-73
2023/05/01 03:33:06;;;;;;;11.95;2.80;;;16.90;84.30;;;;;;4995990;28;20034;-68
2023/05/01 03:35:32;;;;;;;2.97;2.75;;;16.80;84.40;;;;;;4996227;28;20065;-70
2023/05/01 03:37:58;;;;;;;8.30;3.10;;;16.80;84.70;;;;;;4995940;28;20038;-73
2023/05/01 03:40:23;;;;;;;4.22;2.63;;;16.80;84.80;;;;;;4995970;28;20066;-69
2023/05/01 03:42:49;;;;;;;6.20;2.90;;;16.80;84.80;;;;;;4995727;28;20026;-68
2023/05/01 03:45:14;;;;;;;4.13;3.03;;;16.80;85.20;;;;;;4994761;28;20041;-68
2023/05/01 03:47:40;;;;;;;6.05;2.72;;;16.70;85.60;;;;;;4995943;28;20029;-69
2023/05/01 03:50:07;;;;;;;7.57;2.55;;;16.70;86.30;;;;;;4995733;28;20030;-70
2023/05/01 03:52:33;;;;;;;7.78;3.08;;;16.70;86.50;;;;;;4994684;28;20041;-73
2023/05/01 03:54:58;;;;;;;5.50;3.20;;;16.70;86.80;;;;;;4995848;28;20026;-68
2023/05/01 03:57:24;;;;;;;3.67;2.60;;;16.70;87.20;;;;;;4995719;28;20501;-68
2023/05/01 03:59:49;;;;;;;5.85;3.25;;;16.70;86.80;;;;;;4994328;28;20030;-70
2023/05/01 04:02:15;;;;;;;6.80;3.20;;;16.70;86.20;;;;;;4995870;28;20033;-69
2023/05/01 04:04:41;;;;;;;4.32;3.08;;;16.70;85.70;;;;;;4995434;28;20616;-69
2023/05/01 04:07:06;;;;;;;4.18;2.92;;;16.70;85.50;;;;;;4995674;28;20037;-71
2023/05/01 04:09:32;;;;;;;4.47;3.30;;;16.70;86.00;;;;;;4995407;28;20026;-71
2023/05/01 04:11:57;;;;;;;6.78;3.20;;;16.70;85.80;;;;;;4995203;28;20129;-74
2023/05/01 04:14:23;;;;;;;9.10;3.15;;;16.60;85.90;;;;;;4995286;28;20380;-70
2023/05/01 04:16:49;;;;;;;8.15;3.08;;;16.70;86.20;;;;;;4995424;28;20058;-72
2023/05/01 04:19:15;;;;;;;9.93;3.28;;;16.60;87.20;;;;;;4995213;28;20030;-72
2023/05/01 04:21:41;;;;;;;8.70;3.28;;;16.60;86.70;;;;;;4995354;28;20034;-70
2023/05/01 04:24:07;;;;;;;7.65;3.13;;;16.60;86.40;;;;;;4995261;28;20062;-69
2023/05/01 04:26:32;;;;;;;5.63;3.42;;;16.60;86.40;;;;;;4994972;28;20058;-70
2023/05/01 04:28:59;;;;;;;5.35;3.40;;;16.60;86.60;;;;;;4994933;28;20368;-72
2023/05/01 04:31:25;;;;;;;6.65;3.30;;;16.60;87.90;;;;;;4995365;28;20038;-71
2023/05/01 04:33:50;;;;;;;5.03;3.22;;;16.60;88.00;;;;;;4994939;28;20097;-70
2023/05/01 04:36:16;;;;;;;5.90;3.22;;;16.50;87.80;;;;;;4995210;28;20076;-70
2023/05/01 04:38:41;;;;;;;5.10;3.15;;;16.60;87.80;;;;;;4994961;28;20029;-70
2023/05/01 04:41:07;;;;;;;5.18;3.33;;;16.60;86.90;;;;;;4994620;28;20033;-74
2023/05/01 04:43:33;;;;;;;6.05;2.90;;;16.60;86.10;;;;;;4994995;28;20073;-70
2023/05/01 04:45:58;;;;;;;4.05;2.92;;;16.60;85.90;;;;;;4994664;28;20444;-69
2023/05/01 04:48:24;;;;;;;5.85;3.17;;;16.50;86.00;;;;;;4994801;28;20026;-70
2023/05/01 04:50:49;;;;;;;4.25;2.85;;;16.60;85.80;;;;;;4994714;28;20475;-68
2023/05/01 04:53:15;;;;;;;4.47;3.10;;;16.60;85.80;;;;;;4994697;28;20464;-72
2023/05/01 04:55:41;;;;;;;7.57;3.42;;;16.50;86.60;;;;;;4994349;28;20034;-70
2023/05/01 04:58:06;;;;;;;6.63;2.97;;;16.50;86.70;;;;;;4993102;28;20418;-71
2023/05/01 05:00:32;;;;;;;4.00;3.50;;;16.50;87.40;;;;;;4994167;28;20492;-72
2023/05/01 05:02:58;;;;;;;5.80;2.92;;;16.50;87.70;;;;;;4994679;28;20022;-69
2023/05/01 05:05:23;;;;;;;7.28;3.30;;;16.50;88.20;;;;;;4994191;28;20038;-70
2023/05/01 05:07:49;;;;;;;7.25;3.42;;;16.60;88.40;;;;;;4994528;28;20109;-67
2023/05/01 05:10:15;;;;;;;6.60;3.28;;;16.60;88.30;;;;;;4993794;28;20045;-67
2023/05/01 05:12:40;;;;;;;4.97;3.10;;;16.50;88.00;;;;;;4990872;28;20637;-69
2023/05/01 05:15:06;;;;;;;4.35;3.05;;;16.50;88.80;;;;;;4986224;28;20033;-68
2023/05/01 05:17:32;;;;;;;4.47;3.20;;;16.50;89.10;;;;;;4993653;28;20109;-69
2023/05/01 05:19:57;;;;;;;4.90;3.10;;;16.50;89.00;;;;;;4993784;28;20105;-68
2023/05/01 05:22:24;;;;;;;3.80;2.83;;;16.50;88.80;;;;;;4993543;28;20022;-69
2023/05/01 05:25:02;;;;;;;7.13;3.88;;;16.50;89.00;;;;;;4993496;28;20482;-68
2023/05/01 05:27:28;;;;;;;6.95;3.95;;;16.50;89.50;;;;;;4989054;28;20077;-70
2023/05/01 05:29:54;;;;;;;6.18;3.90;;;16.60;89.70;;;;;;4997671;28;20034;-68
2023/05/01 05:32:19;;;;;;;4.95;3.63;;;16.70;89.20;;;;;;5005026;28;20116;-71
2023/05/01 05:34:46;;;;;;;6.28;3.80;;;16.60;89.00;;;;;;4996608;28;20037;-68
2023/05/01 05:37:11;;;;;;;7.57;3.83;;;16.70;89.10;;;;;;4993991;28;20388;-68
2023/05/01 05:39:37;;;;;;;6.30;3.88;;;16.70;89.30;;;;;;4992579;28;20022;-70
2023/05/01 05:42:03;;;;;;;6.25;3.97;;;16.70;89.40;;;;;;4992750;28;20042;-67
2023/05/01 05:44:30;;;;;;;7.97;3.75;;;16.70;89.30;;;;;;4992820;28;20026;-67
2023/05/01 05:46:56;;;;;;;5.35;4.18;;;16.70;89.30;;;;;;4978572;28;20361;-67
2023/05/01 05:49:21;;;;;;;7.65;4.50;;;16.70;89.50;;;;;;4993339;28;20026;-68
2023/05/01 05:51:47;;;;;;;6.93;4.25;;;16.80;89.30;;;;;;4992785;28;20034;-70
2023/05/01 05:54:12;;;;;;;6.13;3.53;;;16.80;89.50;;;;;;4993359;28;20050;-69
2023/05/01 05:56:38;;;;;;;8.40;4.25;;;16.80;89.80;;;;;;4992503;28;20034;-73
2023/05/01 05:59:05;;;;;;;4.90;3.63;;;16.70;90.10;;;;;;4992779;28;20368;-68
2023/05/01 06:01:31;;;;;;;5.38;4.13;;;16.80;90.10;;;;;;4992658;28;20030;-73
2023/05/01 06:03:57;;;;;;;6.63;3.97;;;16.70;90.00;;;;;;4992915;28;20093;-70
2023/05/01 06:06:23;;;;;;;6.30;4.68;;;16.70;90.30;;;;;;4992633;28;20464;-69
2023/05/01 06:08:48;;;;;;;4.40;4.00;;;16.70;90.40;;;;;;4984916;28;20019;-70
2023/05/01 06:11:14;;;;;;;6.78;4.32;;;16.70;90.40;;;;;;4988219;28;20040;-69
2023/05/01 06:13:40;;;;;;;6.43;4.28;;;16.70;90.40;;;;;;4992898;28;20018;-69
2023/05/01 06:16:06;;;;;;;9.00;3.90;;;16.80;90.40;;;;;;4992256;28;20026;-70
2023/05/01 06:18:32;;;;;;;8.82;4.15;;;16.80;90.30;;;;;;5003611;28;20612;-70
2023/05/01 06:20:58;;;;;;;8.18;4.05;;;16.80;90.20;;;;;;4992486;28;20118;-71
2023/05/01 06:23:24;;;;;;;8.50;3.90;;;16.80;90.10;;;;;;4992793;28;20042;-70
2023/05/01 06:25:50;;;;;;;6.03;4.10;;;16.80;90.00;;;;;;4992379;28;20487;-72
2023/05/01 06:28:16;;;;;;;6.45;3.80;;;16.80;89.80;;;;;;4990781;28;20030;-70
2023/05/01 06:30:41;;;;;;;5.43;2.58;;;16.80;89.70;;;;;;4992544;28;20022;-69
2023/05/01 06:33:08;;;;;;;3.28;1.20;;;16.90;90.20;;;;;;4992364;28;20022;-72
2023/05/01 06:35:34;;;;;;;4.63;3.13;;;17.00;91.40;;;;;;4992645;28;20015;-70
2023/05/01 06:38:00;;;;;;;6.32;3.95;;;17.00;91.40;;;;;;4990320;28;20502;-71
2023/05/01 06:40:25;;;;;;;7.50;3.63;;;17.00;90.50;;;;;;4992375;28;20029;-67
2023/05/01 06:42:51;;;;;;;7.78;4.18;;;17.00;90.30;;;;;;4991651;28;20109;-69
2023/05/01 06:45:16;;;;;;;6.47;4.05;;;17.10;90.10;;;;;;4992309;28;20114;-70
2023/05/01 06:47:42;;;;;;;7.18;4.43;;;17.00;90.10;;;;;;4992773;28;20022;-70
2023/05/01 06:50:09;;;;;;;6.72;4.05;;;17.10;90.10;;;;;;4991827;28;20419;-68
2023/05/01 06:52:34;;;;;;;6.93;4.63;;;17.10;89.70;;;;;;4992439;28;20542;-71
2023/05/01 06:55:00;;;;;;;6.03;4.55;;;17.10;89.60;;;;;;4986191;28;20102;-68
2023/05/01 06:57:25;;;;;;;5.88;3.97;;;17.10;89.30;;;;;;4992589;28;20034;-73
2023/05/01 06:59:51;;;;;;;6.07;4.07;;;17.10;89.30;;;;;;5000234;28;20019;-69
2023/05/01 07:02:16;;;;;;;11.30;4.70;;;17.10;89.40;;;;;;4993310;28;20026;-68
2023/05/01 07:04:43;;;;;;;8.57;4.57;;;17.10;89.40;;;;;;4987943;28;20452;-72
2023/05/01 07:07:09;;;;;;;6.07;4.53;;;17.20;89.40;;;;;;4997459;28;20038;-69
2023/05/01 07:09:35;;;;;;;7.10;5.13;;;17.20;89.40;;;;;;4983216;28;20388;-73
2023/05/01 07:12:01;;;;;;;7.20;4.40;;;17.20;89.30;;;;;;4992314;28;20038;-69
2023/05/01 07:14:27;;;;;;;4.80;4.25;;;17.20;89.50;;;;;;4995132;28;20491;-69
2023/05/01 07:16:54;;;;;;;6.47;5.18;;;17.30;89.60;;;;;;4992795;28;20027;-74
2023/05/01 07:19:20;;;;;;;7.32;5.07;;;17.30;88.90;;;;;;4997548;28;20383;-72
2023/05/01 07:21:45;;;;;;;7.68;5.13;;;17.30;89.10;;;;;;4995930;28;20468;-72
2023/05/01 07:24:11;;;;;;;8.35;5.90;;;17.30;89.20;;;;;;4996427;28;20376;-73
2023/05/01 07:26:37;;;;;;;7.32;6.13;;;17.30;90.20;;;;;;4996155;28;20030;-69
2023/05/01 07:29:03;;;;;;;10.32;8.20;;;17.40;90.40;;;;;;4995840;28;20105;-66
2023/05/01 07:31:29;;;;;;;12.93;10.40;;;17.40;90.20;;;;;;4995935;28;20117;-67
2023/05/01 07:33:55;;;;;;;6.90;3.17;;;17.40;90.40;;;;;;4989161;28;20416;-70
2023/05/01 07:36:21;;;;;;;12.35;11.13;;;17.40;90.90;;;;;;4996822;28;20030;-67
2023/05/01 07:38:47;;;;;;;15.75;13.55;;;17.50;91.30;;;;;;4995297;28;20033;-68
2023/05/01 07:41:13;;;;;;;16.17;14.43;;;17.40;90.90;;;;;;4987098;28;20030;-74
2023/05/01 07:43:38;;;;;;;15.23;13.68;;;17.40;90.80;;;;;;4976342;28;20038;-69
2023/05/01 07:46:04;;;;;;;14.45;12.23;;;17.40;90.80;;;;;;4983624;28;20403;-69
2023/05/01 07:48:31;;;;;;;15.45;13.90;;;17.50;90.90;;;;;;4990159;28;20053;-70
2023/05/01 07:51:00;;;;;;;11.65;10.40;;;17.50;90.90;;;;;;4992630;28;20105;-71
2023/05/01 07:53:26;;;;;;;15.30;12.23;;;17.50;91.00;;;;;;4993794;28;20038;-67
2023/05/01 07:55:52;;;;;;;18.50;16.58;;;17.50;91.00;;;;;;4990956;28;20506;-68
2023/05/01 07:58:18;;;;;;;20.10;18.10;;;17.50;91.00;;;;;;4994342;28;20065;-68
2023/05/01 08:00:46;;;;;;;19.25;17.38;;;17.50;91.10;;;;;;4995580;28;20494;-69
2023/05/01 08:03:12;;;;;;;20.15;18.15;;;17.50;91.10;;;;;;4993048;28;20049;-66
2023/05/01 08:05:41;;;;;;;15.85;14.18;;;17.50;91.20;;;;;;4988911;28;20472;-70
2023/05/01 08:08:07;;;;;;;16.98;14.25;;;17.50;91.20;;;;;;4992683;28;20030;-70
2023/05/01 08:10:33;;;;;;;24.08;19.83;;;17.60;91.20;;;;;;4988147;28;20018;-69
2023/05/01 08:12:59;;;;;;;19.30;17.25;;;17.60;91.30;;;;;;4992833;28;20053;-75
2023/05/01 08:15:24;;;;;;;16.48;13.65;;;17.60;91.40;;;;;;4994606;28;20098;-69
2023/05/01 08:17:50;;;;;;;18.85;14.30;;;17.60;91.40;;;;;;4992630;28;20030;-68
2023/05/01 08:20:16;;;;;;;24.95;22.23;;;17.60;91.50;;;;;;4991576;28;20475;-68
2023/05/01 08:22:41;;;;;;;13.38;11.10;;;17.60;91.60;;;;;;4991068;28;20101;-68
2023/05/01 08:25:07;;;;;;;16.38;12.80;;;17.60;91.90;;;;;;4991299;28;20417;-71
2023/05/01 08:27:33;;;;;;;17.00;15.23;;;17.60;91.80;;;;;;4991609;28;20038;-75
2023/05/01 08:29:59;;;;;;;22.60;16.92;;;17.60;91.90;;;;;;4987370;28;20522;-67
2023/05/01 08:32:25;;;;;;;28.88;25.48;;;17.60;91.80;;;;;;4985847;28;20073;-71
2023/05/01 08:34:50;;;;;;;31.65;27.70;;;17.60;92.00;;;;;;4995068;28;20412;-66
2023/05/01 08:37:17;;;;;;;13.43;11.07;;;17.60;92.00;;;;;;4989739;28;20034;-69
2023/05/01 08:39:43;;;;;;;13.15;10.07;;;17.60;92.00;;;;;;4988736;28;20018;-73
2023/05/01 08:42:09;;;;;;;16.92;12.90;;;17.70;92.00;;;;;;4990713;28;20243;-72
2023/05/01 08:44:38;;;;;;;25.88;23.20;;;17.70;92.10;;;;;;4991805;28;20136;-73
2023/05/01 08:47:16;;;;;;;21.55;17.83;;;17.70;92.20;;;;;;5007719;28;20087;-68
2023/05/01 08:49:43;;;;;;;25.10;18.95;;;17.70;92.20;;;;;;5010208;28;20029;-68
2023/05/01 08:52:14;;;;;;;24.08;19.15;;;17.70;92.20;;;;;;4996866;28;20038;-68
2023/05/01 08:54:43;;;;;;;33.92;28.50;;;17.70;92.30;;;;;;4992022;28;20034;-68
2023/05/01 08:57:10;;;;;;;34.00;27.65;;;17.70;92.40;;;;;;4990015;28;20041;-71
2023/05/01 08:59:37;;;;;;;18.35;15.90;;;17.70;92.50;;;;;;4990459;28;20049;-67
2023/05/01 09:02:06;;;;;;;27.30;19.67;;;17.70;92.40;;;;;;4989105;28;20022;-69
2023/05/01 09:04:35;;;;;;;35.35;27.75;;;17.70;92.40;;;;;;4993863;28;20022;-68
2023/05/01 09:07:01;;;;;;;24.75;21.83;;;17.70;92.60;;;;;;4996332;28;20034;-67
2023/05/01 09:09:27;;;;;;;33.83;29.30;;;17.70;92.60;;;;;;4990804;28;20023;-68
2023/05/01 09:12:15;;;;;;;33.60;30.00;;;17.70;93.00;;;;;;4991932;28;20061;-77
2023/05/01 09:14:41;;;;;;;33.95;27.77;;;17.80;93.10;;;;;;4992173;28;20018;-75
2023/05/01 09:17:06;;;;;;;30.27;26.23;;;17.80;93.10;;;;;;4990181;28;20390;-71
2023/05/01 09:19:32;;;;;;;32.47;26.42;;;17.80;93.30;;;;;;4993283;28;20026;-66
2023/05/01 09:21:58;;;;;;;29.88;26.63;;;17.80;93.00;;;;;;4990841;28;20026;-70
2023/05/01 09:24:24;;;;;;;26.65;23.80;;;17.80;93.00;;;;;;4984483;28;20037;-73
2023/05/01 09:26:51;;;;;;;23.88;18.77;;;17.80;93.10;;;;;;4991476;28;20124;-69
2023/05/01 09:29:37;;;;;;;28.38;25.38;;;17.80;93.20;;;;;;4991388;28;20030;-68
2023/05/01 09:32:16;;;;;;;25.63;22.50;;;17.90;93.20;;;;;;4998101;28;20034;-72
2023/05/01 09:34:43;;;;;;;28.60;25.42;;;17.80;93.20;;;;;;4996116;28;20029;-70
2023/05/01 09:37:26;;;;;;;28.92;24.63;;;17.90;93.20;;;;;;4987649;28;20033;-67
2023/05/01 09:40:13;;;;;;;24.40;21.80;;;17.90;93.20;;;;;;4990134;28;20018;-69
2023/05/01 09:42:40;;;;;;;25.88;23.17;;;17.90;93.10;;;;;;4989338;28;20153;-67
2023/05/01 09:45:17;;;;;;;28.08;21.98;;;17.90;93.70;;;;;;4987918;28;20022;-68
2023/05/01 09:47:47;;;;;;;29.77;21.90;;;18.00;97.60;;;;;;4991543;28;20069;-69
2023/05/01 09:50:33;;;;;;;36.40;26.58;;;18.10;98.30;;;;;;4989986;28;20022;-70
2023/05/01 09:53:03;;;;;;;35.83;25.65;;;18.10;99.20;;;;;;4988183;28;20081;-70
2023/05/01 09:55:29;;;;;;;31.00;25.13;;;18.20;99.20;;;;;;4985957;28;20467;-70
2023/05/01 09:57:57;;;;;;;39.08;25.92;;;18.20;98.60;;;;;;4988861;28;20081;-69
2023/05/01 10:00:24;;;;;;;28.60;24.30;;;18.20;99.00;;;;;;4988799;28;20019;-71
2023/05/01 10:02:50;;;;;;;35.13;24.73;;;18.20;98.60;;;;;;4981782;28;20041;-73
2023/05/01 10:05:16;;;;;;;26.70;22.58;;;18.20;98.20;;;;;;4988986;28;20088;-70
2023/05/01 10:07:58;;;;;;;25.17;19.55;;;18.20;97.90;;;;;;4986158;28;20365;-69
2023/05/01 10:10:24;;;;;;;21.30;19.00;;;18.20;97.00;;;;;;4987492;28;20023;-71
2023/05/01 10:12:50;;;;;;;26.55;20.52;;;18.20;96.20;;;;;;4986185;28;20030;-70
2023/05/01 10:15:16;;;;;;;26.83;20.17;;;18.20;96.70;;;;;;4989646;28;20224;-69
2023/05/01 10:17:43;;;;;;;25.30;19.05;;;18.30;96.80;;;;;;4989471;28;20062;-71
2023/05/01 10:20:12;;;;;;;22.27;18.38;;;18.30;97.50;;;;;;4986717;28;20033;-68
2023/05/01 10:22:39;;;;;;;17.05;15.18;;;18.30;96.80;;;;;;4992161;28;20476;-70
2023/05/01 10:25:10;;;;;;;25.60;17.25;;;18.40;95.40;;;;;;5001530;28;20030;-67
2023/05/01 10:27:38;;;;;;;24.38;16.35;;;18.40;96.30;;;;;;4992456;28;20023;-67
2023/05/01 10:30:05;;;;;;;19.65;14.98;;;18.40;96.00;;;;;;4992034;28;20372;-68
2023/05/01 10:32:31;;;;;;;20.95;14.70;;;18.40;96.30;;;;;;4989476;28;20149;-73
2023/05/01 10:35:04;;;;;;;20.15;14.55;;;18.40;96.40;;;;;;4985289;28;20029;-68
2023/05/01 10:38:00;;;;;;;20.30;13.02;;;18.40;96.40;;;;;;4990057;28;20097;-69
2023/05/01 10:40:38;;;;;;;21.48;13.07;;;18.50;95.50;;;;;;4983863;28;20152;-70
2023/05/01 10:43:14;;;;;;;15.38;12.18;;;18.50;95.30;;;;;;4992177;28;20119;-70
2023/05/01 10:45:42;;;;;;;16.45;11.55;;;18.60;95.60;;;;;;4985168;28;20541;-69
2023/05/01 10:48:08;;;;;;;16.73;11.88;;;18.60;95.20;;;;;;4990635;28;20102;-69
2023/05/01 10:50:34;;;;;;;14.77;11.95;;;18.60;94.80;;;;;;4992239;28;20133;-68
2023/05/01 10:53:12;;;;;;;19.33;13.38;;;18.60;94.60;;;;;;4991871;28;20113;-69
2023/05/01 10:55:42;;;;;;;18.35;11.40;;;18.60;95.60;;;;;;5005094;28;20022;-71
2023/05/01 10:58:08;;;;;;;14.57;11.38;;;18.70;95.60;;;;;;4995732;28;20022;-69
2023/05/01 11:00:34;;;;;;;16.40;12.05;;;18.70;95.50;;;;;;4995636;28;20073;-69
2023/05/01 11:03:21;;;;;;;17.73;13.25;;;18.70;94.90;;;;;;4995889;28;20034;-69
2023/05/01 11:05:59;;;;;;;14.20;12.65;;;18.70;93.10;;;;;;4994144;28;20403;-71
2023/05/01 11:08:32;;;;;;;13.82;12.10;;;18.70;92.40;;;;;;4995720;28;20035;-70
2023/05/01 11:11:17;;;;;;;13.38;11.20;;;18.70;91.90;;;;;;4995184;28;20026;-66
2023/05/01 11:14:01;;;;;;;12.60;10.15;;;18.70;92.60;;;;;;4988558;28;20101;-67
2023/05/01 11:16:36;;;;;;;12.30;10.50;;;18.70;92.80;;;;;;4990080;28;20026;-68
2023/05/01 11:19:03;;;;;;;12.32;8.75;;;18.80;92.50;;;;;;4989124;28;20057;-68
2023/05/01 11:21:29;;;;;;;12.38;11.07;;;18.80;93.10;;;;;;4990733;28;20022;-71
2023/05/01 11:23:55;;;;;;;15.50;14.00;;;18.80;93.30;;;;;;4986207;28;20026;-67
2023/05/01 11:26:22;;;;;;;12.57;11.27;;;18.80;91.60;;;;;;4994003;28;20034;-69
2023/05/01 11:28:49;;;;;;;14.20;12.88;;;18.80;91.50;;;;;;4992684;28;20495;-70
2023/05/01 11:31:19;;;;;;;11.23;8.23;;;18.90;90.50;;;;;;4993682;28;20026;-71
2023/05/01 11:33:45;;;;;;;13.02;11.13;;;18.90;91.60;;;;;;4994943;28;20452;-67
2023/05/01 11:36:11;;;;;;;11.05;9.35;;;18.90;91.10;;;;;;4995349;28;20573;-67
2023/05/01 11:38:38;;;;;;;9.98;8.02;;;19.00;91.90;;;;;;4993352;28;20050;-72
2023/05/01 11:41:04;;;;;;;10.38;9.18;;;18.90;92.00;;;;;;4991172;28;20712;-70
2023/05/01 11:43:30;;;;;;;12.27;9.40;;;18.90;91.40;;;;;;4993257;28;20029;-69
2023/05/01 11:46:01;;;;;;;10.77;7.72;;;19.00;91.00;;;;;;4992265;28;20060;-70
2023/05/01 11:48:29;;;;;;;9.48;8.25;;;18.90;91.40;;;;;;4993082;28;20049;-69
2023/05/01 11:50:55;;;;;;;7.43;5.70;;;19.00;91.20;;;;;;4995207;28;20558;-68
2023/05/01 11:53:21;;;;;;;13.82;9.90;;;19.00;91.50;;;;;;5006847;28;20026;-69
2023/05/01 11:55:48;;;;;;;8.98;7.50;;;19.00;90.80;;;;;;5014102;28;20037;-68
2023/05/01 11:58:14;;;;;;;10.57;9.32;;;19.00;91.00;;;;;;4992251;28;20492;-70
2023/05/01 12:00:42;;;;;;;9.15;8.18;;;19.10;90.40;;;;;;4994596;28;20033;-69
2023/05/01 12:03:10;;;;;;;9.60;6.78;;;19.00;90.60;;;;;;4993616;28;20097;-71
2023/05/01 12:05:43;;;;;;;8.52;7.63;;;19.10;90.90;;;;;;4992907;28;20030;-71
2023/05/01 12:08:19;;;;;;;8.02;5.93;;;19.10;90.90;;;;;;5001323;28;20026;-68
2023/05/01 12:10:52;;;;;;;7.35;6.00;;;19.10;90.70;;;;;;4992016;28;20030;-66
2023/05/01 12:13:19;;;;;;;7.30;5.53;;;19.10;90.70;;;;;;4995287;28;20057;-69
2023/05/01 12:15:46;;;;;;;9.93;9.02;;;19.10;90.70;;;;;;4990218;28;20083;-70
2023/05/01 12:18:14;;;;;;;10.55;9.38;;;19.10;90.30;;;;;;4998464;28;20061;-70
2023/05/01 12:20:49;;;;;;;12.30;10.20;;;19.10;90.10;;;;;;4992713;28;20480;-70
2023/05/01 12:23:15;;;;;;;9.57;7.90;;;19.10;89.70;;;;;;4996795;28;20030;-71
2023/05/01 12:25:42;;;;;;;10.32;8.25;;;19.20;89.80;;;;;;4989468;28;20022;-69
2023/05/01 12:28:17;;;;;;;10.10;8.65;;;19.20;89.90;;;;;;4994524;28;20029;-69
2023/05/01 12:30:44;;;;;;;10.70;9.60;;;19.20;89.70;;;;;;4994520;28;20113;-68
2023/05/01 12:33:23;;;;;;;6.95;5.07;;;19.10;88.60;;;;;;4992479;28;20061;-68
2023/05/01 12:35:49;;;;;;;11.70;10.52;;;19.20;90.30;;;;;;4990090;28;20026;-72
2023/05/01 12:38:15;;;;;;;9.07;8.18;;;19.20;88.80;;;;;;4997318;28;20026;-71
2023/05/01 12:40:50;;;;;;;13.52;9.63;;;19.20;89.70;;;;;;4988837;28;20080;-71
2023/05/01 12:43:17;;;;;;;8.32;7.53;;;19.20;89.00;;;;;;4989318;28;20034;-70
2023/05/01 12:45:43;;;;;;;10.20;6.95;;;19.20;89.80;;;;;;4994302;28;20025;-71